Time;durP1;ratioP1;P1;durP2;ratioP2;P2;SDS_P1;SDS_P2;PMS_P1;PMS_P2;Temp;Humidity;BMP_temperature;BMP_pressure;BME280_temperature;BME280_humidity;BME280_pressure;Samples;Min_cycle;Max_cycle;Signal;HPM_P1;HPM_P2
2023/07/16 00:06:26;;;;;;;4.63;2.90;;;22.50;99.90;;;;;;21078592;28;20290;-65
2023/07/16 00:16:28;;;;;;;7.67;4.07;;;22.50;99.90;;;;;;21078423;28;20236;-65
2023/07/16 00:26:30;;;;;;;6.73;3.87;;;22.50;99.90;;;;;;21078648;28;20289;-69
2023/07/16 00:36:32;;;;;;;3.20;2.90;;;22.20;99.90;;;;;;21077766;28;20317;-69
2023/07/16 00:46:33;;;;;;;3.60;2.80;;;22.20;99.90;;;;;;21077303;28;20202;-70
2023/07/16 00:56:37;;;;;;;3.40;3.10;;;22.20;99.90;;;;;;21077041;28;20274;-72
2023/07/16 01:06:41;;;;;;;4.27;2.60;;;22.30;99.90;;;;;;21076597;28;20205;-72
2023/07/16 01:16:43;;;;;;;4.40;2.53;;;22.30;99.90;;;;;;21085600;28;20233;-71
2023/07/16 01:27:16;;;;;;;5.07;2.80;;;22.20;99.90;;;;;;21091178;28;20203;-69
2023/07/16 01:37:18;;;;;;;5.60;2.80;;;22.10;99.90;;;;;;21089981;28;20641;-72
2023/07/16 01:47:31;;;;;;;3.20;2.70;;;22.10;99.90;;;;;;21089276;28;20294;-70
2023/07/16 01:57:33;;;;;;;3.93;2.67;;;22.10;99.90;;;;;;21088524;28;20288;-68
2023/07/16 02:07:34;;;;;;;5.07;2.63;;;22.00;99.90;;;;;;21087627;28;20218;-69
2023/07/16 02:17:36;;;;;;;3.43;2.40;;;21.90;99.90;;;;;;21086696;28;20240;-69
2023/07/16 02:27:38;;;;;;;3.50;2.00;;;21.90;99.90;;;;;;21086014;28;20726;-68
2023/07/16 02:37:40;;;;;;;3.17;1.90;;;21.90;99.90;;;;;;21085107;28;20757;-70
2023/07/16 02:47:41;;;;;;;2.20;1.90;;;21.80;99.90;;;;;;21084221;28;20208;-71
2023/07/16 02:57:43;;;;;;;4.50;1.90;;;21.70;99.90;;;;;;21083506;28;20234;-67
2023/07/16 03:07:45;;;;;;;3.33;1.87;;;21.50;99.90;;;;;;21082790;28;20661;-69
2023/07/16 03:17:47;;;;;;;3.70;1.80;;;21.40;99.90;;;;;;21081843;28;20234;-67
2023/07/16 03:27:48;;;;;;;3.87;1.70;;;21.30;99.90;;;;;;21081764;28;20290;-67
2023/07/16 03:37:50;;;;;;;3.10;1.80;;;21.30;99.90;;;;;;21080009;28;20265;-67
2023/07/16 03:47:52;;;;;;;2.67;1.70;;;21.20;99.90;;;;;;21080026;28;20286;-67
2023/07/16 03:57:54;;;;;;;3.53;1.70;;;21.20;99.90;;;;;;21079584;28;20242;-68
2023/07/16 04:07:57;;;;;;;7.13;1.73;;;21.10;99.90;;;;;;21079064;28;20213;-67
2023/07/16 04:17:58;;;;;;;5.30;2.20;;;21.20;99.90;;;;;;21078564;28;20326;-67
2023/07/16 04:28:00;;;;;;;9.63;2.00;;;21.20;99.90;;;;;;21078723;28;20293;-68
2023/07/16 04:38:02;;;;;;;7.87;2.30;;;21.20;99.90;;;;;;21077994;28;20241;-68
2023/07/16 04:48:04;;;;;;;7.73;2.17;;;21.20;99.90;;;;;;21084575;28;20213;-68
2023/07/16 04:58:06;;;;;;;8.50;2.70;;;21.10;99.90;;;;;;21092928;28;20238;-65
2023/07/16 05:08:08;;;;;;;5.90;2.03;;;21.00;99.90;;;;;;21092745;28;20210;-67
2023/07/16 05:18:09;;;;;;;7.10;2.37;;;21.00;99.90;;;;;;21091679;28;20241;-68
2023/07/16 05:28:11;;;;;;;8.47;3.07;;;21.00;99.90;;;;;;21091005;28;20203;-68
2023/07/16 05:38:13;;;;;;;6.93;2.33;;;21.00;99.90;;;;;;21090515;28;20697;-68
2023/07/16 05:48:14;;;;;;;7.40;2.67;;;20.90;99.80;;;;;;21089388;28;20202;-67
2023/07/16 05:58:17;;;;;;;5.23;2.43;;;20.80;99.50;;;;;;21087682;28;20269;-68
2023/07/16 06:08:18;;;;;;;9.30;2.63;;;21.00;99.30;;;;;;21088284;28;20241;-67
2023/07/16 06:18:20;;;;;;;4.73;2.40;;;20.90;98.70;;;;;;21087072;28;20329;-67
2023/07/16 06:28:23;;;;;;;5.57;2.03;;;20.80;98.10;;;;;;21086170;28;20233;-68
2023/07/16 06:38:25;;;;;;;9.53;3.07;;;21.20;97.70;;;;;;21086112;28;20337;-70
2023/07/16 06:48:30;;;;;;;7.00;2.10;;;20.80;96.80;;;;;;21083565;28;20210;-68
2023/07/16 06:58:33;;;;;;;7.20;2.50;;;20.70;96.60;;;;;;21083470;28;20807;-69
2023/07/16 07:08:35;;;;;;;10.03;4.00;;;20.80;96.40;;;;;;21082320;28;20238;-67
2023/07/16 07:18:37;;;;;;;5.97;2.10;;;20.90;96.00;;;;;;21081987;28;20269;-67
2023/07/16 07:28:38;;;;;;;6.20;2.20;;;21.10;96.00;;;;;;21081395;28;20208;-70
2023/07/16 07:38:40;;;;;;;7.53;2.23;;;21.40;95.90;;;;;;21080821;28;20234;-71
2023/07/16 07:48:42;;;;;;;4.90;2.00;;;21.60;95.00;;;;;;21079947;28;20622;-71
2023/07/16 07:58:44;;;;;;;9.87;2.43;;;21.60;94.50;;;;;;21079252;28;20317;-72
2023/07/16 08:08:45;;;;;;;5.03;2.50;;;21.90;93.70;;;;;;21079344;28;20657;-72
2023/07/16 08:18:47;;;;;;;6.00;2.57;;;22.00;92.70;;;;;;21078542;28;20594;-70
2023/07/16 08:28:49;;;;;;;8.90;2.17;;;22.10;90.80;;;;;;21095576;28;20206;-70
2023/07/16 08:38:51;;;;;;;4.10;2.00;;;22.30;89.30;;;;;;21094939;28;20332;-68
2023/07/16 08:48:53;;;;;;;8.23;2.50;;;22.40;86.60;;;;;;21093655;28;20594;-71
2023/07/16 08:58:56;;;;;;;5.77;2.87;;;22.40;85.60;;;;;;21093018;28;20235;-68
2023/07/16 09:08:58;;;;;;;6.27;2.10;;;22.30;85.40;;;;;;21091157;28;20207;-71
2023/07/16 09:19:11;;;;;;;6.47;2.20;;;22.40;83.70;;;;;;21091559;28;20230;-68
2023/07/16 09:29:13;;;;;;;5.60;2.47;;;22.50;80.70;;;;;;21090689;28;20213;-72
2023/07/16 09:39:19;;;;;;;6.23;1.90;;;22.50;78.90;;;;;;21089007;28;20234;-66
2023/07/16 09:49:20;;;;;;;7.00;2.30;;;22.80;77.90;;;;;;21088805;28;20242;-68
2023/07/16 09:59:24;;;;;;;4.03;2.20;;;23.10;76.40;;;;;;21088221;28;20265;-68
2023/07/16 10:09:41;;;;;;;9.03;2.10;;;23.40;74.50;;;;;;21087748;28;20302;-68
2023/07/16 10:19:50;;;;;;;7.67;3.10;;;23.70;72.80;;;;;;21086601;28;20234;-66
2023/07/16 10:29:54;;;;;;;8.93;2.30;;;23.90;70.20;;;;;;21085869;28;20245;-68
2023/07/16 10:39:58;;;;;;;5.43;2.40;;;23.60;66.20;;;;;;21085337;28;20233;-68
2023/07/16 10:50:07;;;;;;;7.33;2.10;;;23.90;66.30;;;;;;21083599;28;20265;-66
2023/07/16 11:00:10;;;;;;;5.87;2.43;;;24.00;64.40;;;;;;21083564;28;20234;-66
2023/07/16 11:10:14;;;;;;;9.20;2.53;;;24.00;64.20;;;;;;21083161;28;20680;-67
2023/07/16 11:20:19;;;;;;;7.83;3.00;;;24.00;63.90;;;;;;21081869;28;20235;-67
2023/07/16 11:30:25;;;;;;;8.37;2.67;;;24.00;62.90;;;;;;21081257;28;20617;-68
2023/07/16 11:40:27;;;;;;;6.33;2.50;;;24.00;62.50;;;;;;21079451;28;20231;-67
2023/07/16 11:50:29;;;;;;;5.83;2.43;;;24.20;62.20;;;;;;21079743;28;20333;-68
2023/07/16 12:00:31;;;;;;;6.63;2.60;;;24.40;61.80;;;;;;21078654;28;20261;-69
2023/07/16 12:10:33;;;;;;;6.67;2.53;;;24.70;60.40;;;;;;21079099;28;20207;-68
2023/07/16 12:20:36;;;;;;;9.27;2.43;;;25.00;59.90;;;;;;21078360;28;20358;-67
2023/07/16 12:30:38;;;;;;;6.40;2.87;;;25.50;59.00;;;;;;21078116;28;20202;-67
2023/07/16 12:40:40;;;;;;;6.20;2.30;;;25.40;58.00;;;;;;21078129;28;20231;-69
2023/07/16 12:50:42;;;;;;;5.77;2.10;;;25.40;57.50;;;;;;21078024;28;20238;-68
2023/07/16 13:00:44;;;;;;;7.73;2.53;;;25.50;57.00;;;;;;21075764;28;20242;-69
2023/07/16 13:10:46;;;;;;;4.47;2.20;;;25.70;56.40;;;;;;21086421;28;20203;-67
2023/07/16 13:20:48;;;;;;;5.93;2.80;;;25.80;55.00;;;;;;21091654;28;20701;-67
2023/07/16 13:30:50;;;;;;;4.23;2.20;;;25.80;54.70;;;;;;21090864;28;20576;-67
2023/07/16 13:40:52;;;;;;;5.13;3.13;;;25.90;53.80;;;;;;21090642;28;20262;-67
2023/07/16 13:50:54;;;;;;;7.43;2.40;;;26.10;52.70;;;;;;21089160;28;20234;-67
2023/07/16 14:00:55;;;;;;;5.93;2.40;;;26.10;51.90;;;;;;21088532;28;20230;-67
2023/07/16 14:10:57;;;;;;;4.93;2.37;;;26.40;51.70;;;;;;21088244;28;20202;-68
2023/07/16 14:20:59;;;;;;;4.50;2.30;;;26.50;50.00;;;;;;21086515;28;20234;-67
2023/07/16 14:31:02;;;;;;;6.93;2.35;;;26.70;49.50;;;;;;21085964;28;20289;-68
2023/07/16 14:41:04;;;;;;;4.95;2.33;;;28.20;46.90;;;;;;21085604;28;20716;-68
2023/07/16 14:51:06;;;;;;;5.95;2.60;;;28.20;46.30;;;;;;21084106;28;20664;-68
2023/07/16 15:01:08;;;;;;;6.43;2.67;;;27.70;46.10;;;;;;21083724;28;20792;-68
2023/07/16 15:11:10;;;;;;;2.22;2.03;;;29.10;44.30;;;;;;21083264;28;20675;-67
2023/07/16 15:21:11;;;;;;;3.67;2.20;;;30.00;42.80;;;;;;21081961;28;20277;-68
2023/07/16 15:31:13;;;;;;;6.63;2.47;;;29.40;43.10;;;;;;21080449;28;20297;-70
2023/07/16 15:41:17;;;;;;;4.38;2.20;;;29.40;42.30;;;;;;21079361;28;20326;-68
2023/07/16 15:51:19;;;;;;;5.67;2.43;;;28.30;43.80;;;;;;21079860;28;20266;-69
2023/07/16 16:01:21;;;;;;;3.50;2.40;;;27.80;44.40;;;;;;21079032;28;20328;-69
2023/07/16 16:11:24;;;;;;;5.82;2.30;;;27.90;44.70;;;;;;21078702;28;20210;-69
2023/07/16 16:21:25;;;;;;;5.80;2.75;;;30.90;41.30;;;;;;21078755;28;20321;-70
2023/07/16 16:31:27;;;;;;;6.43;2.72;;;33.70;38.10;;;;;;21078356;28;20633;-69
2023/07/16 16:41:29;;;;;;;6.35;2.63;;;32.50;37.80;;;;;;21080552;28;20283;-69
2023/07/16 16:51:30;;;;;;;3.67;2.50;;;30.20;39.60;;;;;;21094128;28;20668;-68
2023/07/16 17:01:32;;;;;;;4.40;2.42;;;29.40;40.80;;;;;;21078409;28;20317;-69
2023/07/16 17:11:35;;;;;;;4.95;2.25;;;31.10;39.30;;;;;;21056455;28;20222;-70
2023/07/16 17:21:39;;;;;;;3.78;2.47;;;34.50;36.20;;;;;;21044641;28;20239;-68
2023/07/16 17:31:41;;;;;;;3.45;2.05;;;35.30;34.60;;;;;;21007014;28;20290;-70
2023/07/16 17:41:43;;;;;;;3.90;2.40;;;33.70;35.60;;;;;;21078793;28;20254;-64
2023/07/16 17:51:44;;;;;;;4.65;2.35;;;38.30;31.20;;;;;;21088148;28;20230;-69
2023/07/16 18:01:47;;;;;;;19.10;3.00;;;39.50;30.30;;;;;;21088389;28;20235;-67
2023/07/16 18:11:49;;;;;;;7.88;2.30;;;33.90;34.10;;;;;;21048898;28;20273;-70
2023/07/16 18:21:51;;;;;;;4.88;2.70;;;30.60;37.30;;;;;;20999706;28;20745;-70
2023/07/16 18:32:13;;;;;;;7.88;2.95;;;29.00;39.60;;;;;;21002424;28;20672;-70
2023/07/16 18:42:16;;;;;;;4.27;2.40;;;27.90;41.70;;;;;;20916044;28;20262;-69
2023/07/16 18:52:20;;;;;;;4.40;2.33;;;27.10;43.30;;;;;;20917627;28;20236;-69
2023/07/16 19:02:22;;;;;;;7.00;2.93;;;26.40;45.40;;;;;;20916373;28;20232;-72
2023/07/16 19:12:26;;;;;;;5.30;2.70;;;25.90;46.90;;;;;;20915718;28;20338;-67
2023/07/16 19:22:28;;;;;;;5.57;2.77;;;25.60;48.00;;;;;;20915365;28;20699;-67
2023/07/16 19:32:30;;;;;;;4.50;2.70;;;25.20;49.20;;;;;;20914300;28;20208;-63
2023/07/16 19:42:33;;;;;;;5.37;2.80;;;24.90;50.10;;;;;;20913743;28;20235;-69
2023/07/16 19:52:34;;;;;;;6.50;2.73;;;24.80;50.80;;;;;;20913248;28;20242;-65
2023/07/16 20:02:36;;;;;;;7.60;3.00;;;24.70;51.40;;;;;;20947330;28;20239;-68
2023/07/16 20:12:38;;;;;;;8.93;2.90;;;24.50;52.00;;;;;;20914024;28;20281;-67
2023/07/16 20:22:40;;;;;;;6.20;3.10;;;24.10;54.00;;;;;;20949959;28;20322;-62
2023/07/16 20:32:42;;;;;;;6.20;3.30;;;23.80;55.90;;;;;;20940606;28;20203;-66
2023/07/16 20:42:44;;;;;;;5.80;3.10;;;23.50;57.00;;;;;;20949337;28;20833;-63
2023/07/16 20:52:48;;;;;;;8.30;3.43;;;23.30;57.60;;;;;;20945897;28;20403;-63
2023/07/16 21:02:52;;;;;;;9.43;3.30;;;23.10;58.00;;;;;;20945975;28;20322;-64
2023/07/16 21:12:56;;;;;;;10.10;3.50;;;23.00;59.00;;;;;;20948626;28;20725;-63
2023/07/16 21:22:58;;;;;;;9.30;4.00;;;22.80;59.80;;;;;;20946319;28;20239;-64
2023/07/16 21:33:01;;;;;;;5.07;3.03;;;22.60;60.60;;;;;;20928065;28;20576;-64
2023/07/16 21:43:03;;;;;;;8.97;3.10;;;22.40;61.80;;;;;;20919645;28;20290;-64
2023/07/16 21:53:14;;;;;;;5.60;3.47;;;22.20;62.30;;;;;;20922780;28;20795;-64
2023/07/16 22:03:19;;;;;;;5.97;3.30;;;22.20;63.00;;;;;;20921744;28;20684;-64
2023/07/16 22:13:21;;;;;;;7.27;3.03;;;22.00;63.80;;;;;;20920005;28;20546;-64
2023/07/16 22:23:24;;;;;;;6.97;3.50;;;21.90;64.50;;;;;;20920682;28;20232;-65
2023/07/16 22:33:26;;;;;;;7.43;3.60;;;21.80;65.30;;;;;;20918332;28;20213;-67
2023/07/16 22:43:27;;;;;;;9.33;3.40;;;21.70;65.60;;;;;;20918303;28;20631;-67
2023/07/16 22:53:29;;;;;;;10.23;3.93;;;21.50;66.60;;;;;;20917928;28;20246;-67
2023/07/16 23:03:31;;;;;;;6.53;3.47;;;21.50;68.40;;;;;;20917083;28;20227;-65
2023/07/16 23:13:33;;;;;;;8.10;3.83;;;21.20;70.20;;;;;;20916294;28;20208;-67
2023/07/16 23:23:36;;;;;;;8.13;3.40;;;21.00;71.70;;;;;;20915658;28;20707;-67
2023/07/16 23:33:37;;;;;;;9.53;3.63;;;20.90;72.90;;;;;;20914733;28;20291;-67
2023/07/16 23:43:40;;;;;;;5.93;3.60;;;20.90;73.50;;;;;;20914038;28;20646;-68
2023/07/16 23:53:42;;;;;;;5.37;3.60;;;20.60;75.10;;;;;;20912880;28;20320;-67
